createdAt,value
2023-07-18T00:01:59.645Z,3.20
2023-07-18T00:04:29.464Z,2.28
2023-07-18T00:06:56.237Z,3.60
2023-07-18T00:09:23.630Z,4.07
2023-07-18T00:11:50.236Z,2.70
2023-07-18T00:14:17.816Z,3.13
2023-07-18T00:16:45.488Z,2.63
2023-07-18T00:19:13.334Z,5.20
2023-07-18T00:21:40.465Z,4.25
2023-07-18T00:24:07.394Z,4.93
2023-07-18T00:26:34.315Z,4.65
2023-07-18T00:29:00.852Z,2.72
2023-07-18T00:31:28.207Z,2.70
2023-07-18T00:33:54.796Z,4.30
2023-07-18T00:36:21.424Z,3.70
2023-07-18T00:38:48.206Z,3.95
2023-07-18T00:41:15.265Z,3.63
2023-07-18T00:43:41.822Z,5.72
2023-07-18T00:46:09.440Z,3.72
2023-07-18T00:48:36.971Z,2.15
2023-07-18T00:51:08.496Z,3.38
2023-07-18T00:53:38.491Z,3.05
2023-07-18T00:56:05.916Z,3.78
2023-07-18T00:58:32.739Z,4.13
2023-07-18T01:01:01.526Z,5.30
2023-07-18T01:03:28.706Z,3.60
2023-07-18T01:05:55.628Z,4.55
2023-07-18T01:08:22.384Z,2.92
2023-07-18T01:10:50.280Z,4.35
2023-07-18T01:13:17.062Z,3.38
2023-07-18T01:15:44.430Z,12.00
2023-07-18T01:18:11.292Z,2.17
2023-07-18T01:20:38.284Z,3.05
2023-07-18T01:23:05.786Z,3.55
2023-07-18T01:25:37.709Z,2.90
2023-07-18T01:28:04.960Z,2.63
2023-07-18T01:30:31.850Z,3.30
2023-07-18T01:32:58.980Z,4.38
2023-07-18T01:35:27.893Z,4.07
2023-07-18T01:37:56.013Z,5.90
2023-07-18T01:40:23.670Z,4.25
2023-07-18T01:42:52.354Z,3.38
2023-07-18T01:45:23.949Z,5.50
2023-07-18T01:47:52.356Z,3.28
2023-07-18T01:50:19.693Z,3.88
2023-07-18T01:52:48.180Z,2.97
2023-07-18T01:55:15.980Z,6.88
2023-07-18T01:57:43.877Z,3.97
2023-07-18T02:00:12.439Z,4.13
2023-07-18T02:02:43.020Z,3.08
2023-07-18T02:05:10.127Z,2.42
2023-07-18T02:07:36.947Z,3.05
2023-07-18T02:10:04.009Z,3.20
2023-07-18T02:12:30.978Z,3.22
2023-07-18T02:14:57.900Z,3.00
2023-07-18T02:17:24.947Z,4.28
2023-07-18T02:19:51.846Z,3.20
2023-07-18T02:22:20.281Z,7.05
2023-07-18T02:24:49.323Z,4.47
2023-07-18T02:27:16.302Z,2.88
2023-07-18T02:29:43.122Z,4.15
2023-07-18T02:32:09.904Z,3.72
2023-07-18T02:34:36.760Z,3.45
2023-07-18T02:37:03.600Z,3.60
2023-07-18T02:39:33.884Z,5.45
2023-07-18T02:42:00.912Z,3.45
2023-07-18T02:44:27.755Z,3.00
2023-07-18T02:46:54.693Z,6.40
2023-07-18T02:49:21.770Z,3.50
2023-07-18T02:51:48.658Z,5.70
2023-07-18T02:54:15.476Z,6.57
2023-07-18T02:56:42.274Z,3.25
2023-07-18T02:59:09.088Z,5.30
2023-07-18T03:01:35.900Z,4.93
2023-07-18T03:04:02.858Z,3.72
2023-07-18T03:06:30.308Z,4.65
2023-07-18T03:08:57.129Z,5.70
2023-07-18T03:11:24.505Z,4.18
2023-07-18T03:13:51.540Z,5.47
2023-07-18T03:16:18.349Z,3.72
2023-07-18T03:18:45.089Z,3.42
2023-07-18T03:21:11.836Z,4.22
2023-07-18T03:23:38.559Z,5.50
2023-07-18T03:26:08.221Z,4.63
2023-07-18T03:28:34.781Z,5.28
2023-07-18T03:31:01.596Z,3.92
2023-07-18T03:33:28.182Z,4.80
2023-07-18T03:35:54.868Z,4.53
2023-07-18T03:38:21.442Z,2.92
2023-07-18T03:40:48.407Z,4.25
2023-07-18T03:43:15.002Z,5.43
2023-07-18T03:45:41.820Z,3.38
2023-07-18T03:48:08.407Z,3.75
2023-07-18T03:50:35.048Z,5.32
2023-07-18T03:53:01.595Z,5.53
2023-07-18T03:55:28.153Z,5.38
2023-07-18T03:57:54.699Z,3.85
2023-07-18T04:00:21.861Z,5.03
2023-07-18T04:02:49.693Z,5.05
2023-07-18T04:05:18.596Z,4.85
2023-07-18T04:07:46.667Z,7.28
2023-07-18T04:10:13.991Z,3.13
2023-07-18T04:12:41.442Z,4.32
2023-07-18T04:15:09.373Z,6.35
2023-07-18T04:17:36.351Z,9.02
2023-07-18T04:20:07.003Z,6.25
2023-07-18T04:22:33.565Z,4.78
2023-07-18T04:25:00.113Z,5.90
2023-07-18T04:27:28.499Z,5.57
2023-07-18T04:29:56.157Z,5.78
2023-07-18T04:32:22.877Z,8.82
2023-07-18T04:34:49.872Z,6.50
2023-07-18T04:37:17.120Z,6.85
2023-07-18T04:39:43.701Z,9.82
2023-07-18T04:42:11.650Z,3.80
2023-07-18T04:44:39.034Z,5.25
2023-07-18T04:47:05.954Z,8.50
2023-07-18T04:49:33.043Z,5.97
2023-07-18T04:51:59.632Z,6.55
2023-07-18T04:54:26.333Z,6.13
2023-07-18T04:56:54.628Z,7.78
2023-07-18T04:59:23.432Z,6.55
2023-07-18T05:01:54.945Z,4.78
2023-07-18T05:04:21.886Z,9.60
2023-07-18T05:06:49.931Z,8.80
2023-07-18T05:09:18.771Z,5.07
2023-07-18T05:11:47.682Z,10.95
2023-07-18T05:14:14.213Z,8.27
2023-07-18T05:16:40.732Z,9.30
2023-07-18T05:19:07.375Z,11.18
2023-07-18T05:21:34.059Z,10.65
2023-07-18T05:24:00.807Z,12.55
2023-07-18T05:26:27.557Z,16.70
2023-07-18T05:28:55.128Z,10.30
2023-07-18T05:31:22.657Z,9.95
2023-07-18T05:33:49.900Z,10.93
2023-07-18T05:36:17.400Z,10.43
2023-07-18T05:38:46.186Z,8.18
2023-07-18T05:41:13.181Z,10.75
2023-07-18T05:43:40.255Z,9.02
2023-07-18T05:46:07.212Z,11.00
2023-07-18T05:48:34.170Z,11.25
2023-07-18T05:51:01.901Z,9.55
2023-07-18T05:53:29.018Z,13.50
2023-07-18T05:55:55.958Z,12.65
2023-07-18T05:58:22.881Z,15.32
2023-07-18T06:00:49.702Z,11.38
2023-07-18T06:03:16.724Z,14.60
2023-07-18T06:05:43.575Z,13.48
2023-07-18T06:08:11.378Z,10.65
2023-07-18T06:10:38.139Z,14.32
2023-07-18T06:13:05.696Z,13.48
2023-07-18T06:15:32.588Z,12.20
2023-07-18T06:17:59.348Z,9.77
2023-07-18T06:20:26.285Z,13.45
2023-07-18T06:22:53.736Z,12.00
2023-07-18T06:25:20.587Z,14.30
2023-07-18T06:27:47.456Z,11.35
2023-07-18T06:30:14.327Z,13.57
2023-07-18T06:32:41.414Z,12.20
2023-07-18T06:35:22.385Z,11.77
2023-07-18T06:37:51.190Z,9.90
2023-07-18T06:40:18.368Z,11.98
2023-07-18T06:42:45.092Z,40.42
2023-07-18T06:45:13.522Z,21.42
2023-07-18T06:47:40.395Z,12.32
2023-07-18T06:50:07.500Z,9.85
2023-07-18T06:52:36.631Z,11.60
2023-07-18T06:55:05.160Z,9.25
2023-07-18T06:57:31.717Z,13.73
2023-07-18T06:59:58.302Z,10.65
2023-07-18T07:02:24.875Z,12.45
2023-07-18T07:04:51.442Z,10.05
2023-07-18T07:07:18.002Z,11.73
2023-07-18T07:09:44.766Z,10.95
2023-07-18T07:12:19.005Z,14.05
2023-07-18T07:17:19.806Z,12.77
2023-07-18T07:19:46.327Z,10.02
2023-07-18T07:22:14.487Z,15.10
2023-07-18T07:24:41.561Z,6.53
2023-07-18T07:27:08.341Z,8.05
2023-07-18T07:29:34.913Z,13.18
2023-07-18T07:32:01.581Z,12.57
2023-07-18T07:34:30.329Z,14.25
2023-07-18T07:36:57.882Z,11.93
2023-07-18T07:39:24.478Z,13.07
2023-07-18T07:41:51.133Z,13.48
2023-07-18T07:44:17.660Z,10.70
2023-07-18T07:46:44.537Z,14.35
2023-07-18T07:49:12.600Z,14.55
2023-07-18T07:51:39.221Z,14.95
2023-07-18T07:54:05.913Z,13.77
2023-07-18T07:56:32.516Z,12.15
2023-07-18T07:59:10.527Z,19.42
2023-07-18T08:01:38.480Z,15.63
2023-07-18T08:04:05.260Z,14.25
2023-07-18T08:06:31.954Z,12.10
2023-07-18T08:08:58.630Z,9.40
2023-07-18T08:11:25.181Z,15.43
2023-07-18T08:13:54.763Z,11.65
2023-07-18T08:16:21.876Z,14.25
2023-07-18T08:18:48.520Z,12.88
2023-07-18T08:21:15.234Z,8.27
2023-07-18T08:23:41.806Z,10.75
2023-07-18T08:26:10.517Z,9.35
2023-07-18T08:28:39.895Z,9.45
2023-07-18T08:31:06.698Z,12.73
2023-07-18T08:33:34.132Z,9.52
2023-07-18T08:36:00.936Z,11.52
2023-07-18T08:38:27.711Z,9.82
2023-07-18T08:40:54.361Z,10.15
2023-07-18T08:43:21.672Z,9.48
2023-07-18T08:45:48.933Z,7.78
2023-07-18T08:48:18.679Z,9.48
2023-07-18T08:50:48.166Z,8.40
2023-07-18T08:53:14.783Z,10.15
2023-07-18T08:55:41.630Z,9.65
2023-07-18T08:58:09.211Z,11.63
2023-07-18T09:00:35.776Z,8.15
2023-07-18T09:03:02.655Z,10.93
2023-07-18T09:05:35.000Z,10.88
2023-07-18T09:08:03.521Z,6.25
2023-07-18T09:10:30.646Z,7.28
2023-07-18T09:13:02.173Z,6.07
2023-07-18T09:15:30.186Z,7.47
2023-07-18T09:17:58.584Z,11.05
2023-07-18T09:20:30.663Z,6.65
2023-07-18T09:22:58.770Z,5.32
2023-07-18T09:25:27.039Z,13.00
2023-07-18T09:27:58.258Z,7.47
2023-07-18T09:30:29.732Z,7.07
2023-07-18T09:32:56.717Z,3.75
2023-07-18T09:35:28.022Z,8.32
2023-07-18T09:37:54.931Z,5.07
2023-07-18T09:40:21.943Z,9.57
2023-07-18T09:42:50.087Z,6.32
2023-07-18T09:45:18.106Z,6.05
2023-07-18T09:47:45.509Z,5.95
2023-07-18T09:50:14.528Z,8.27
2023-07-18T09:52:43.594Z,5.30
2023-07-18T09:55:12.795Z,4.45
2023-07-18T10:00:13.027Z,7.38
2023-07-18T10:02:40.850Z,6.28
2023-07-18T10:05:11.040Z,6.65
2023-07-18T10:07:39.862Z,4.00
2023-07-18T10:10:11.956Z,10.63
2023-07-18T10:13:01.444Z,8.10
2023-07-18T10:15:29.637Z,6.80
2023-07-18T10:18:16.327Z,6.50
2023-07-18T10:20:57.592Z,5.07
2023-07-18T10:23:43.295Z,7.65
2023-07-18T10:26:10.687Z,3.85
2023-07-18T10:28:45.372Z,6.25
2023-07-18T10:31:29.465Z,10.65
2023-07-18T10:34:15.205Z,5.43
2023-07-18T10:36:55.703Z,6.07
2023-07-18T10:39:40.652Z,4.78
2023-07-18T10:42:08.416Z,6.22
2023-07-18T10:44:38.207Z,5.43
2023-07-18T10:47:19.095Z,4.32
2023-07-18T10:49:48.448Z,4.55
2023-07-18T10:52:16.679Z,4.13
2023-07-18T10:54:46.999Z,7.35
2023-07-18T10:57:14.981Z,4.10
2023-07-18T10:59:45.723Z,4.07
2023-07-18T11:02:13.111Z,4.65
2023-07-18T11:04:39.896Z,5.20
2023-07-18T11:07:06.603Z,3.40
2023-07-18T11:09:33.429Z,3.25
2023-07-18T11:12:01.237Z,4.72
2023-07-18T11:14:38.296Z,8.30
2023-07-18T11:17:11.718Z,3.03
2023-07-18T11:19:39.060Z,8.15
2023-07-18T11:22:07.045Z,4.70
2023-07-18T11:24:36.489Z,4.85
2023-07-18T11:27:20.705Z,2.60
2023-07-18T11:30:05.828Z,6.55
2023-07-18T11:32:39.037Z,3.03
2023-07-18T11:35:08.689Z,7.20
2023-07-18T11:37:42.513Z,2.70
2023-07-18T11:40:11.240Z,3.97
2023-07-18T11:42:43.917Z,6.18
2023-07-18T11:45:11.121Z,3.67
2023-07-18T11:47:43.983Z,4.03
2023-07-18T11:50:11.741Z,5.35
2023-07-18T11:52:38.562Z,7.13
2023-07-18T11:55:05.551Z,3.28
2023-07-18T11:57:32.087Z,5.15
2023-07-18T11:59:59.699Z,3.75
2023-07-18T12:02:26.474Z,4.13
2023-07-18T12:04:53.737Z,8.88
2023-07-18T12:07:20.470Z,6.25
2023-07-18T12:09:48.800Z,4.72
2023-07-18T12:12:15.402Z,3.42
2023-07-18T12:14:42.997Z,4.50
2023-07-18T12:17:09.702Z,5.15
2023-07-18T12:19:36.414Z,5.60
2023-07-18T12:22:03.147Z,5.45
2023-07-18T12:24:29.784Z,4.22
2023-07-18T12:26:56.396Z,3.50
2023-07-18T12:29:23.534Z,3.00
2023-07-18T12:31:53.245Z,4.78
2023-07-18T12:34:20.813Z,4.82
2023-07-18T12:36:50.216Z,3.85
2023-07-18T12:39:18.875Z,5.20
2023-07-18T12:41:45.413Z,4.35
2023-07-18T12:44:19.745Z,5.70
2023-07-18T12:46:47.891Z,6.25
2023-07-18T12:49:15.802Z,4.38
2023-07-18T12:51:42.605Z,6.13
2023-07-18T12:54:09.859Z,4.32
2023-07-18T12:56:38.827Z,2.15
2023-07-18T12:59:07.186Z,3.65
2023-07-18T13:01:34.064Z,4.82
2023-07-18T13:04:04.476Z,4.65
2023-07-18T13:06:31.219Z,4.45
2023-07-18T13:08:58.073Z,3.63
2023-07-18T13:11:24.852Z,5.43
2023-07-18T13:13:52.811Z,7.22
2023-07-18T13:16:19.905Z,6.82
2023-07-18T13:18:47.070Z,6.45
2023-07-18T13:21:14.147Z,4.80
2023-07-18T13:23:40.961Z,3.38
2023-07-18T13:26:10.641Z,4.70
2023-07-18T13:28:37.567Z,5.43
2023-07-18T13:31:04.385Z,3.42
2023-07-18T13:33:31.095Z,6.18
2023-07-18T13:35:59.253Z,2.95
2023-07-18T13:38:26.018Z,5.95
2023-07-18T13:40:53.953Z,6.18
2023-07-18T13:43:20.777Z,2.75
2023-07-18T13:45:47.700Z,4.72
2023-07-18T13:48:16.510Z,4.88
2023-07-18T13:50:43.385Z,3.83
2023-07-18T13:53:10.179Z,7.85
2023-07-18T13:55:37.231Z,3.35
2023-07-18T13:58:13.387Z,5.32
2023-07-18T14:00:40.908Z,3.83
2023-07-18T14:03:19.702Z,5.30
2023-07-18T14:05:54.361Z,4.32
2023-07-18T14:08:22.644Z,5.75
2023-07-18T14:10:49.518Z,4.82
2023-07-18T14:13:16.950Z,4.90
2023-07-18T14:15:43.560Z,5.53
2023-07-18T14:18:12.156Z,3.22
2023-07-18T14:20:38.962Z,3.90
2023-07-18T14:23:05.624Z,6.05
2023-07-18T14:25:32.368Z,5.55
2023-07-18T14:27:59.446Z,5.40
2023-07-18T14:30:26.560Z,2.92
2023-07-18T14:32:53.165Z,4.20
2023-07-18T14:35:20.052Z,4.65
2023-07-18T14:37:47.914Z,6.57
2023-07-18T14:40:14.549Z,3.78
2023-07-18T14:42:41.654Z,5.07
2023-07-18T14:45:11.146Z,3.63
2023-07-18T14:47:37.801Z,3.30
2023-07-18T14:50:05.093Z,5.20
2023-07-18T14:52:34.738Z,2.65
2023-07-18T14:55:01.633Z,4.78
2023-07-18T14:57:28.228Z,2.25
2023-07-18T14:59:54.908Z,3.05
2023-07-18T15:02:22.194Z,2.83
2023-07-18T15:04:50.008Z,2.92
2023-07-18T15:07:16.595Z,2.53
2023-07-18T15:09:44.312Z,3.35
2023-07-18T15:12:11.039Z,3.97
2023-07-18T15:14:38.057Z,4.15
2023-07-18T15:17:06.285Z,2.70
2023-07-18T15:19:33.416Z,2.85
2023-07-18T15:22:01.995Z,1.77
2023-07-18T15:24:28.524Z,3.13
2023-07-18T15:26:55.504Z,2.05
2023-07-18T15:29:22.395Z,3.45
2023-07-18T15:31:49.215Z,2.53
2023-07-18T15:34:16.140Z,2.33
2023-07-18T15:36:47.264Z,1.83
2023-07-18T15:39:13.902Z,3.00
2023-07-18T15:41:40.511Z,2.30
2023-07-18T15:44:07.105Z,3.97
2023-07-18T15:46:37.646Z,3.80
2023-07-18T15:49:05.221Z,2.47
2023-07-18T15:51:32.239Z,5.60
2023-07-18T15:53:58.854Z,2.28
2023-07-18T15:56:25.455Z,1.38
2023-07-18T15:58:53.281Z,2.40
2023-07-18T16:01:19.900Z,3.33
2023-07-18T16:03:46.818Z,3.25
2023-07-18T16:06:14.435Z,3.13
2023-07-18T16:08:41.359Z,2.28
2023-07-18T16:11:07.932Z,4.85
2023-07-18T16:13:35.639Z,2.88
2023-07-18T16:16:02.590Z,4.65
2023-07-18T16:18:29.384Z,7.00
2023-07-18T16:20:56.201Z,4.75
2023-07-18T16:23:22.949Z,2.40
2023-07-18T16:25:49.878Z,4.30
2023-07-18T16:28:16.699Z,4.15
2023-07-18T16:30:43.767Z,3.70
2023-07-18T16:33:10.573Z,2.83
2023-07-18T16:35:37.669Z,4.25
2023-07-18T16:38:04.602Z,5.30
2023-07-18T16:40:31.423Z,2.95
2023-07-18T16:42:58.173Z,4.60
2023-07-18T16:45:24.966Z,3.35
2023-07-18T16:47:51.794Z,6.80
2023-07-18T16:50:18.690Z,5.80
2023-07-18T16:52:46.365Z,4.00
2023-07-18T16:55:13.225Z,2.67
2023-07-18T16:57:39.987Z,2.88
2023-07-18T17:00:07.393Z,2.58
2023-07-18T17:02:34.903Z,5.57
2023-07-18T17:05:01.877Z,3.42
2023-07-18T17:07:28.651Z,4.03
2023-07-18T17:09:55.419Z,4.15
2023-07-18T17:12:22.263Z,4.85
2023-07-18T17:14:48.998Z,5.90
2023-07-18T17:17:15.831Z,5.07
2023-07-18T17:19:53.455Z,3.38
2023-07-18T17:22:29.519Z,5.43
2023-07-18T17:24:56.140Z,2.33
2023-07-18T17:27:23.312Z,5.45
2023-07-18T17:29:50.155Z,6.63
2023-07-18T17:32:18.383Z,4.35
2023-07-18T17:34:45.082Z,4.22
2023-07-18T17:37:11.628Z,4.05
2023-07-18T17:39:38.197Z,3.50
2023-07-18T17:42:08.182Z,3.22
2023-07-18T17:44:35.603Z,2.65
2023-07-18T17:47:02.144Z,3.38
2023-07-18T17:49:28.708Z,7.00
2023-07-18T17:51:55.279Z,1.77
2023-07-18T17:54:22.373Z,2.38
2023-07-18T17:56:49.094Z,3.08
2023-07-18T17:59:15.646Z,3.05
2023-07-18T18:01:42.732Z,3.75
2023-07-18T18:04:11.081Z,5.53
2023-07-18T18:06:37.713Z,3.03
2023-07-18T18:09:04.366Z,3.13
2023-07-18T18:11:31.188Z,3.75
2023-07-18T18:14:00.751Z,5.10
2023-07-18T18:16:27.588Z,3.03
2023-07-18T18:18:54.168Z,3.95
2023-07-18T18:21:21.496Z,6.20
2023-07-18T18:23:48.893Z,3.28
2023-07-18T18:26:15.823Z,3.75
2023-07-18T18:28:42.430Z,3.45
2023-07-18T18:31:09.029Z,3.63
2023-07-18T18:33:35.649Z,5.30
2023-07-18T18:36:02.574Z,3.33
2023-07-18T18:38:29.150Z,3.63
2023-07-18T18:40:55.743Z,3.25
2023-07-18T18:43:22.378Z,5.10
2023-07-18T18:45:49.008Z,2.58
2023-07-18T18:48:15.528Z,2.95
2023-07-18T18:50:42.087Z,2.00
2023-07-18T18:53:08.915Z,3.88
2023-07-18T18:55:35.816Z,2.67
2023-07-18T18:58:02.643Z,4.13
2023-07-18T19:00:29.577Z,5.15
2023-07-18T19:02:58.689Z,3.85
2023-07-18T19:05:25.458Z,5.35
2023-07-18T19:07:52.035Z,3.72
2023-07-18T19:10:18.568Z,3.33
2023-07-18T19:12:45.084Z,2.70
2023-07-18T19:15:11.926Z,2.60
2023-07-18T19:17:38.682Z,3.17
2023-07-18T19:20:06.275Z,3.78
2023-07-18T19:22:33.089Z,3.60
2023-07-18T19:24:59.885Z,1.73
2023-07-18T19:27:27.344Z,2.38
2023-07-18T19:29:54.261Z,3.55
2023-07-18T19:32:21.200Z,3.83
2023-07-18T19:34:48.050Z,2.90
2023-07-18T19:37:14.926Z,2.47
2023-07-18T19:39:41.905Z,3.22
2023-07-18T19:42:09.155Z,2.80
2023-07-18T19:44:36.031Z,2.65
2023-07-18T19:47:02.991Z,3.10
2023-07-18T19:49:30.040Z,3.30
2023-07-18T19:51:59.676Z,2.83
2023-07-18T19:54:27.088Z,4.45
2023-07-18T19:56:54.384Z,4.35
2023-07-18T19:59:21.455Z,3.42
2023-07-18T20:01:48.636Z,2.97
2023-07-18T20:04:15.813Z,1.85
2023-07-18T20:06:42.742Z,6.25
2023-07-18T20:09:09.671Z,4.30
2023-07-18T20:11:36.569Z,3.83
2023-07-18T20:14:03.384Z,3.85
2023-07-18T20:16:31.405Z,2.88
2023-07-18T20:19:02.537Z,2.67
2023-07-18T20:21:30.843Z,3.65
2023-07-18T20:23:58.217Z,3.35
2023-07-18T20:26:25.746Z,3.47
2023-07-18T20:28:52.714Z,3.30
2023-07-18T20:31:20.237Z,2.15
2023-07-18T20:33:47.804Z,3.22
2023-07-18T20:36:14.541Z,3.15
2023-07-18T20:38:41.346Z,4.28
2023-07-18T20:41:10.299Z,3.95
2023-07-18T20:43:37.190Z,4.05
2023-07-18T20:46:04.967Z,4.18
2023-07-18T20:48:34.868Z,4.25
2023-07-18T20:51:01.474Z,3.08
2023-07-18T20:53:30.254Z,2.70
2023-07-18T20:55:57.290Z,5.28
2023-07-18T20:58:24.401Z,3.00
2023-07-18T21:00:51.085Z,4.97
2023-07-18T21:03:17.830Z,2.40
2023-07-18T21:05:45.278Z,2.85
2023-07-18T21:08:12.876Z,5.55
2023-07-18T21:10:39.436Z,3.15
2023-07-18T21:13:08.243Z,2.92
2023-07-18T21:15:39.311Z,4.97
2023-07-18T21:18:05.937Z,3.78
2023-07-18T21:20:32.509Z,4.03
2023-07-18T21:23:00.620Z,1.70
2023-07-18T21:25:28.459Z,2.53
2023-07-18T21:27:55.105Z,3.55
2023-07-18T21:30:21.812Z,3.78
2023-07-18T21:32:48.388Z,2.40
2023-07-18T21:35:15.971Z,2.25
2023-07-18T21:37:42.567Z,6.20
2023-07-18T21:40:09.908Z,1.63
2023-07-18T21:42:36.455Z,2.70
2023-07-18T21:45:03.104Z,3.08
2023-07-18T21:47:29.683Z,2.88
2023-07-18T21:49:56.657Z,3.15
2023-07-18T21:52:23.824Z,2.03
2023-07-18T21:54:50.397Z,3.72
2023-07-18T21:57:17.603Z,3.22
2023-07-18T21:59:44.456Z,7.20
2023-07-18T22:02:12.675Z,3.15
2023-07-18T22:04:39.805Z,2.72
2023-07-18T22:07:09.068Z,5.90
2023-07-18T22:09:36.131Z,2.90
2023-07-18T22:12:06.560Z,2.03
2023-07-18T22:14:33.202Z,6.35
2023-07-18T22:16:59.907Z,2.33
2023-07-18T22:19:26.730Z,1.83
2023-07-18T22:21:53.277Z,2.78
2023-07-18T22:24:19.894Z,2.88
2023-07-18T22:26:46.479Z,2.85
2023-07-18T22:29:13.075Z,3.30
2023-07-18T22:31:39.738Z,2.00
2023-07-18T22:34:06.437Z,3.17
2023-07-18T22:36:32.996Z,3.08
2023-07-18T22:38:59.567Z,5.00
2023-07-18T22:41:26.601Z,3.00
2023-07-18T22:43:53.752Z,4.70
2023-07-18T22:46:20.507Z,2.70
2023-07-18T22:48:47.269Z,5.45
2023-07-18T22:51:13.982Z,3.38
2023-07-18T22:53:40.707Z,3.28
2023-07-18T22:56:07.450Z,3.78
2023-07-18T22:58:34.175Z,2.22
2023-07-18T23:01:00.954Z,2.78
2023-07-18T23:03:27.838Z,4.20
2023-07-18T23:05:54.690Z,4.47
2023-07-18T23:08:21.223Z,3.97
2023-07-18T23:10:48.029Z,2.40
2023-07-18T23:13:16.373Z,3.58
2023-07-18T23:15:43.252Z,3.58
2023-07-18T23:18:09.878Z,5.72
2023-07-18T23:20:36.532Z,3.40
2023-07-18T23:23:04.463Z,3.30
2023-07-18T23:25:31.148Z,2.90
2023-07-18T23:27:57.696Z,2.95
2023-07-18T23:30:24.367Z,3.95
2023-07-18T23:32:50.998Z,2.88
2023-07-18T23:35:17.807Z,2.85
2023-07-18T23:37:44.406Z,2.95
2023-07-18T23:40:10.972Z,3.38
2023-07-18T23:42:38.873Z,3.08
2023-07-18T23:45:05.907Z,3.53
2023-07-18T23:47:32.457Z,2.58
2023-07-18T23:49:59.110Z,3.25
2023-07-18T23:52:25.638Z,2.10
2023-07-18T23:54:52.234Z,1.65
2023-07-18T23:57:18.758Z,4.45
2023-07-18T23:59:45.316Z,2.45
